createdAt,value
2023-03-12T00:00:09.103Z,99128.11
2023-03-12T00:03:31.881Z,99122.33
2023-03-12T00:06:34.774Z,99123.02
2023-03-12T00:09:40.515Z,99121.31
2023-03-12T00:12:43.450Z,99124.70
2023-03-12T00:15:46.243Z,99121.38
2023-03-12T00:18:51.093Z,99121.85
2023-03-12T00:21:53.865Z,99123.15
2023-03-12T00:24:57.592Z,99128.11
2023-03-12T00:28:05.873Z,99125.42
2023-03-12T00:31:27.734Z,99126.13
2023-03-12T00:34:36.157Z,99128.26
2023-03-12T00:37:44.463Z,99098.96
2023-03-12T00:52:07.177Z,99119.58
2023-03-12T00:55:15.094Z,99114.58
2023-03-12T00:58:24.503Z,99117.58
2023-03-12T01:01:58.680Z,99123.05
2023-03-12T01:20:07.125Z,99136.38
2023-03-12T01:23:51.998Z,99126.19
2023-03-12T01:27:01.339Z,99126.19
2023-03-12T01:30:11.882Z,99127.45
2023-03-12T01:33:14.961Z,99121.38
2023-03-12T01:36:29.597Z,99119.58
2023-03-12T01:39:32.708Z,99111.57
2023-03-12T01:42:40.164Z,99135.19
2023-03-12T01:46:31.917Z,99115.29
2023-03-12T01:49:47.543Z,99110.59
2023-03-12T02:07:59.992Z,99132.41
2023-03-12T02:11:07.543Z,99116.27
2023-03-12T02:14:15.128Z,99127.80
2023-03-12T02:17:22.602Z,99140.13
2023-03-12T02:21:21.436Z,99144.29
2023-03-12T02:24:48.811Z,99148.14
2023-03-12T02:28:20.728Z,99155.45
2023-03-12T02:31:58.155Z,99150.48
2023-03-12T02:39:06.080Z,99153.84
2023-03-12T02:42:16.924Z,99152.98
2023-03-12T02:45:49.914Z,99167.77
2023-03-12T02:59:45.261Z,99167.92
2023-03-12T03:02:52.631Z,99176.45
2023-03-12T03:06:04.152Z,99166.55
2023-03-12T03:09:12.693Z,99165.66
2023-03-12T03:13:15.068Z,99186.27
2023-03-12T03:16:36.568Z,99196.41
2023-03-12T03:19:39.361Z,99189.39
2023-03-12T03:22:42.193Z,99213.36
2023-03-12T03:25:47.098Z,99212.52
2023-03-12T03:28:50.972Z,99213.60
2023-03-12T03:31:53.807Z,99221.20
2023-03-12T03:34:56.556Z,99223.31
2023-03-12T03:37:59.316Z,99235.05
2023-03-12T03:41:02.800Z,99233.84
2023-03-12T03:44:07.023Z,99228.83
2023-03-12T03:47:09.711Z,99226.12
2023-03-12T03:50:12.592Z,99231.95
2023-03-12T03:53:15.417Z,99226.91
2023-03-12T03:56:18.430Z,99231.36
2023-03-12T03:59:21.151Z,99231.89
2023-03-12T04:02:23.899Z,99233.34
2023-03-12T04:05:26.777Z,99239.80
2023-03-12T04:08:30.019Z,99245.08
2023-03-12T04:11:39.430Z,99258.03
2023-03-12T04:14:47.742Z,99243.17
2023-03-12T04:17:56.245Z,99231.98
2023-03-12T04:20:59.448Z,99235.42
2023-03-12T04:24:02.375Z,99249.71
2023-03-12T04:27:10.242Z,99248.09
2023-03-12T04:30:13.631Z,99238.09
2023-03-12T04:33:19.315Z,99250.63
2023-03-12T04:36:22.734Z,99262.77
2023-03-12T04:39:25.596Z,99256.56
2023-03-12T04:42:28.354Z,99262.02
2023-03-12T04:45:31.137Z,99269.39
2023-03-12T04:48:34.742Z,99276.93
2023-03-12T04:51:37.587Z,99277.88
2023-03-12T04:54:40.686Z,99279.57
2023-03-12T04:57:43.513Z,99274.89
2023-03-12T05:00:48.416Z,99277.27
2023-03-12T05:03:51.947Z,99277.80
2023-03-12T05:06:54.727Z,99284.05
2023-03-12T05:09:57.511Z,99286.34
2023-03-12T05:13:00.364Z,99296.80
2023-03-12T05:16:03.560Z,99299.23
2023-03-12T05:19:21.028Z,99303.30
2023-03-12T05:22:24.458Z,99307.09
2023-03-12T05:25:27.820Z,99305.82
2023-03-12T05:28:30.812Z,99309.63
2023-03-12T05:31:35.481Z,99309.13
2023-03-12T05:34:57.119Z,99318.36
2023-03-12T05:38:06.511Z,99317.20
2023-03-12T05:41:27.680Z,99304.35
2023-03-12T06:12:08.744Z,99332.96
2023-03-12T06:15:11.813Z,99337.36
2023-03-12T06:18:15.192Z,99340.58
2023-03-12T06:21:23.237Z,99338.63
2023-03-12T06:24:26.104Z,99341.58
2023-03-12T06:27:28.996Z,99346.40
2023-03-12T06:30:32.348Z,99354.91
2023-03-12T06:33:35.761Z,99352.17
2023-03-12T06:36:44.955Z,99356.47
2023-03-12T06:39:48.050Z,99343.85
2023-03-12T06:42:56.608Z,99364.21
2023-03-12T06:46:06.906Z,99345.39
2023-03-12T06:49:17.121Z,99359.65
2023-03-12T06:52:25.867Z,99357.60
2023-03-12T06:56:40.957Z,99377.60
2023-03-12T07:00:22.578Z,99378.47
2023-03-12T07:03:31.560Z,99382.55
2023-03-12T07:06:39.944Z,99383.55
2023-03-12T07:09:43.107Z,99374.54
2023-03-12T07:12:46.450Z,99388.89
2023-03-12T07:15:49.820Z,99394.20
2023-03-12T07:18:53.090Z,99398.33
2023-03-12T07:21:56.699Z,99392.02
2023-03-12T07:24:59.359Z,99398.63
2023-03-12T07:28:02.540Z,99401.98
2023-03-12T07:31:05.873Z,99399.38
2023-03-12T07:34:09.126Z,99400.36
2023-03-12T07:37:12.342Z,99402.31
2023-03-12T07:40:15.884Z,99402.88
2023-03-12T07:43:21.659Z,99403.84
2023-03-12T07:46:24.571Z,99409.69
2023-03-12T07:49:27.669Z,99404.83
2023-03-12T07:52:32.282Z,99407.02
2023-03-12T07:55:38.941Z,99408.35
2023-03-12T07:58:42.400Z,99411.79
2023-03-12T08:01:46.418Z,99420.16
2023-03-12T08:04:50.085Z,99417.88
2023-03-12T08:07:53.985Z,99418.98
2023-03-12T08:10:57.270Z,99416.64
2023-03-12T08:14:00.286Z,99422.23
2023-03-12T08:17:03.407Z,99423.65
2023-03-12T08:20:10.299Z,99426.17
2023-03-12T08:23:13.080Z,99428.85
2023-03-12T08:26:15.818Z,99426.41
2023-03-12T08:29:18.533Z,99429.17
2023-03-12T08:32:22.171Z,99431.55
2023-03-12T08:35:29.554Z,99433.98
2023-03-12T08:38:32.931Z,99431.08
2023-03-12T08:41:35.761Z,99432.58
2023-03-12T08:44:38.757Z,99433.35
2023-03-12T08:47:43.610Z,99429.17
2023-03-12T08:50:46.835Z,99433.46
2023-03-12T08:53:49.906Z,99431.77
2023-03-12T08:56:53.236Z,99433.42
2023-03-12T08:59:56.052Z,99434.30
2023-03-12T09:03:00.168Z,99437.63
2023-03-12T09:06:13.185Z,99440.92
2023-03-12T09:09:16.411Z,99439.50
2023-03-12T09:12:19.544Z,99440.58
2023-03-12T09:15:22.205Z,99442.10
2023-03-12T09:18:24.900Z,99443.95
2023-03-12T09:21:27.955Z,99449.58
2023-03-12T09:24:30.721Z,99454.33
2023-03-12T09:27:38.380Z,99458.90
2023-03-12T09:30:42.297Z,99454.55
2023-03-12T09:33:45.187Z,99450.46
2023-03-12T09:36:48.340Z,99452.48
2023-03-12T09:39:52.731Z,99445.13
2023-03-12T09:43:03.455Z,99447.02
2023-03-12T09:46:15.248Z,99445.83
2023-03-12T09:49:48.166Z,99448.29
2023-03-12T09:52:53.880Z,99445.80
2023-03-12T09:55:59.583Z,99439.87
2023-03-12T09:59:03.107Z,99429.39
2023-03-12T10:02:37.456Z,99432.20
2023-03-12T10:06:05.359Z,99434.30
2023-03-12T10:09:35.349Z,99431.86
2023-03-12T10:12:58.309Z,99433.96
2023-03-12T10:16:38.358Z,99429.41
2023-03-12T10:19:57.098Z,99427.85
2023-03-12T10:23:07.671Z,99428.73
2023-03-12T10:26:10.540Z,99428.35
2023-03-12T10:29:17.489Z,99426.48
2023-03-12T10:32:40.621Z,99428.83
2023-03-12T10:35:43.897Z,99418.43
2023-03-12T10:38:49.494Z,99418.23
2023-03-12T10:41:53.276Z,99421.98
2023-03-12T10:45:16.360Z,99425.27
2023-03-12T10:48:26.206Z,99422.84
2023-03-12T10:51:30.110Z,99420.47
2023-03-12T10:54:38.712Z,99428.95
2023-03-12T10:57:42.878Z,99423.87
2023-03-12T11:00:57.088Z,99414.84
2023-03-12T11:04:18.671Z,99413.02
2023-03-12T11:07:29.177Z,99406.95
2023-03-12T11:10:37.985Z,99405.53
2023-03-12T11:13:42.023Z,99408.86
2023-03-12T11:16:53.148Z,99402.38
2023-03-12T11:19:57.379Z,99402.94
2023-03-12T11:23:17.670Z,99400.27
2023-03-12T11:26:22.665Z,99395.96
2023-03-12T11:29:33.333Z,99393.95
2023-03-12T11:32:45.574Z,99391.52
2023-03-12T11:36:32.542Z,99393.13
2023-03-12T11:40:00.221Z,99393.77
2023-03-12T11:43:26.310Z,99397.33
2023-03-12T11:46:42.788Z,99390.73
2023-03-12T11:50:00.818Z,99385.27
2023-03-12T11:53:23.357Z,99388.34
2023-03-12T11:56:36.209Z,99389.45
2023-03-12T12:00:09.233Z,99377.42
2023-03-12T12:03:42.775Z,99367.66
2023-03-12T12:06:52.737Z,99365.96
2023-03-12T12:10:22.187Z,99358.65
2023-03-12T12:13:30.789Z,99346.70
2023-03-12T12:16:44.381Z,99336.17
2023-03-12T12:19:56.228Z,99340.13
2023-03-12T12:23:14.111Z,99339.59
2023-03-12T12:26:33.021Z,99337.25
2023-03-12T12:29:59.422Z,99331.37
2023-03-12T12:33:22.756Z,99331.71
2023-03-12T12:36:29.938Z,99330.33
2023-03-12T12:39:35.550Z,99323.50
2023-03-12T12:43:11.118Z,99315.73
2023-03-12T12:46:18.786Z,99316.95
2023-03-12T12:49:35.698Z,99314.73
2023-03-12T12:52:39.090Z,99308.84
2023-03-12T12:56:06.268Z,99308.25
2023-03-12T12:59:31.805Z,99303.23
2023-03-12T13:02:39.689Z,99300.69
2023-03-12T13:05:55.692Z,99308.37
2023-03-12T13:09:02.217Z,99316.42
2023-03-12T13:12:13.041Z,99314.33
2023-03-12T13:15:30.837Z,99310.31
2023-03-12T13:18:33.640Z,99303.45
2023-03-12T13:21:57.976Z,99299.89
2023-03-12T13:25:25.274Z,99296.33
2023-03-12T13:28:32.616Z,99290.55
2023-03-12T13:31:37.799Z,99281.31
2023-03-12T13:34:46.367Z,99285.25
2023-03-12T13:37:52.102Z,99294.02
2023-03-12T13:41:02.416Z,99297.58
2023-03-12T13:44:23.462Z,99296.50
2023-03-12T13:47:32.383Z,99284.69
2023-03-12T13:50:42.943Z,99271.27
2023-03-12T13:53:53.601Z,99259.30
2023-03-12T13:57:05.801Z,99251.22
2023-03-12T14:00:25.616Z,99261.77
2023-03-12T14:03:40.260Z,99257.33
2023-03-12T14:07:14.577Z,99252.13
2023-03-12T14:10:37.069Z,99256.45
2023-03-12T14:13:52.644Z,99258.73
2023-03-12T14:17:01.908Z,99261.14
2023-03-12T14:20:10.864Z,99258.52
2023-03-12T14:23:17.027Z,99251.86
2023-03-12T14:26:24.620Z,99248.59
2023-03-12T14:29:45.056Z,99248.05
2023-03-12T14:32:49.990Z,99254.04
2023-03-12T14:36:07.847Z,99244.43
2023-03-12T14:39:25.182Z,99246.13
2023-03-12T14:42:30.543Z,99247.55
2023-03-12T14:45:40.371Z,99248.59
2023-03-12T14:48:43.671Z,99241.89
2023-03-12T14:51:46.492Z,99234.92
2023-03-12T14:55:02.307Z,99231.69
2023-03-12T14:58:14.381Z,99213.70
2023-03-12T15:01:23.469Z,99195.52
2023-03-12T15:04:26.832Z,99179.73
2023-03-12T15:07:34.139Z,99183.88
2023-03-12T15:10:39.310Z,99181.88
2023-03-12T15:13:42.301Z,99184.96
2023-03-12T15:16:45.543Z,99185.81
2023-03-12T15:19:50.352Z,99177.12
2023-03-12T15:22:54.080Z,99173.58
2023-03-12T15:26:27.381Z,99177.19
2023-03-12T15:29:30.876Z,99168.45
2023-03-12T15:32:33.830Z,99163.91
2023-03-12T15:35:58.646Z,99148.31
2023-03-12T15:39:26.321Z,99143.54
2023-03-12T15:42:29.599Z,99159.55
2023-03-12T15:45:37.974Z,99161.85
2023-03-12T15:48:45.934Z,99153.25
2023-03-12T15:52:18.032Z,99159.45
2023-03-12T15:55:28.672Z,99160.04
2023-03-12T15:58:41.571Z,99165.23
2023-03-12T16:01:51.025Z,99160.23
2023-03-12T16:04:54.475Z,99159.13
2023-03-12T16:07:57.872Z,99155.64
2023-03-12T16:11:00.674Z,99153.46
2023-03-12T16:14:13.588Z,99156.05
2023-03-12T16:17:23.673Z,99138.08
2023-03-12T16:20:26.720Z,99132.92
2023-03-12T16:23:29.408Z,99127.13
2023-03-12T16:26:35.833Z,99126.13
2023-03-12T16:29:39.980Z,99124.56
2023-03-12T16:32:43.088Z,99123.61
2023-03-12T16:35:46.278Z,99133.58
2023-03-12T16:38:49.242Z,99143.73
2023-03-12T16:41:51.933Z,99141.92
2023-03-12T16:44:54.826Z,99140.30
2023-03-12T16:48:04.239Z,99134.73
2023-03-12T16:51:13.957Z,99129.42
2023-03-12T16:54:16.690Z,99128.23
2023-03-12T16:57:37.691Z,99122.66
2023-03-12T17:00:40.601Z,99121.79
2023-03-12T17:03:45.749Z,99124.75
2023-03-12T17:06:48.484Z,99117.18
2023-03-12T17:09:51.223Z,99123.21
2023-03-12T17:12:55.702Z,99121.51
2023-03-12T17:15:58.798Z,99114.44
2023-03-12T17:19:01.722Z,99116.31
2023-03-12T17:22:15.105Z,99111.70
2023-03-12T17:25:30.197Z,99115.56
2023-03-12T17:28:32.980Z,99118.34
2023-03-12T17:31:37.729Z,99122.32
2023-03-12T17:34:40.555Z,99120.92
2023-03-12T17:37:44.089Z,99113.26
2023-03-12T17:40:47.452Z,99114.11
2023-03-12T17:43:50.550Z,99102.20
2023-03-12T17:46:59.744Z,99100.72
2023-03-12T17:50:04.212Z,99088.69
2023-03-12T17:53:07.363Z,99085.55
2023-03-12T17:56:12.738Z,99103.00
2023-03-12T17:59:18.396Z,99109.86
2023-03-12T18:02:21.500Z,99114.63
2023-03-12T18:05:25.424Z,99112.10
2023-03-12T18:08:28.982Z,99099.55
2023-03-12T18:11:35.173Z,99096.82
2023-03-12T18:14:38.727Z,99092.66
2023-03-12T18:17:44.671Z,99094.30
2023-03-12T18:20:48.502Z,99103.39
2023-03-12T18:23:51.486Z,99117.08
2023-03-12T18:26:54.302Z,99113.54
2023-03-12T18:29:57.220Z,99111.55
2023-03-12T18:33:00.180Z,99112.18
2023-03-12T18:36:04.147Z,99108.88
2023-03-12T18:39:07.258Z,99108.65
2023-03-12T18:42:10.266Z,99101.80
2023-03-12T18:45:13.511Z,99100.36
2023-03-12T18:48:16.231Z,99093.63
2023-03-12T18:51:19.646Z,99087.94
2023-03-12T18:54:24.727Z,99083.95
2023-03-12T18:57:27.776Z,99075.38
2023-03-12T19:00:30.521Z,99070.58
2023-03-12T19:03:36.469Z,99066.65
2023-03-12T19:06:50.265Z,99058.05
2023-03-12T19:09:54.151Z,99048.31
2023-03-12T19:12:57.139Z,99053.21
2023-03-12T19:16:02.096Z,99051.09
2023-03-12T19:19:05.071Z,99050.08
2023-03-12T19:22:08.020Z,99054.91
2023-03-12T19:25:10.698Z,99056.75
2023-03-12T19:28:13.495Z,99062.70
2023-03-12T19:31:16.267Z,99067.55
2023-03-12T19:34:20.115Z,99069.31
2023-03-12T19:37:22.846Z,99071.09
2023-03-12T19:40:25.765Z,99068.75
2023-03-12T19:43:28.561Z,99067.02
2023-03-12T19:46:31.470Z,99065.91
2023-03-12T19:49:35.805Z,99061.02
2023-03-12T19:52:38.900Z,99058.97
2023-03-12T19:55:49.706Z,99057.17
2023-03-12T19:58:52.471Z,99052.88
2023-03-12T20:01:55.598Z,99041.13
2023-03-12T20:04:58.344Z,99037.51
2023-03-12T20:08:01.103Z,99037.05
2023-03-12T20:11:06.884Z,99026.30
2023-03-12T20:14:09.668Z,99024.21
2023-03-12T20:17:13.378Z,99020.52
2023-03-12T20:20:16.761Z,99013.86
2023-03-12T20:23:19.616Z,99007.95
2023-03-12T20:26:23.318Z,99006.55
2023-03-12T20:29:26.256Z,98997.59
2023-03-12T20:32:29.145Z,99006.39
2023-03-12T20:35:32.604Z,99000.19
2023-03-12T20:38:36.092Z,98997.15
2023-03-12T20:41:38.981Z,99000.27
2023-03-12T20:44:41.759Z,98996.80
2023-03-12T20:47:44.813Z,98992.14
2023-03-12T20:50:51.024Z,98998.17
2023-03-12T20:53:53.749Z,98989.48
2023-03-12T20:56:58.591Z,98982.73
2023-03-12T21:00:01.412Z,98979.13
2023-03-12T21:03:04.270Z,98978.09
2023-03-12T21:06:07.117Z,98976.16
2023-03-12T21:09:09.868Z,98982.25
2023-03-12T21:12:13.127Z,98985.93
2023-03-12T21:15:16.019Z,98986.35
2023-03-12T21:18:19.011Z,98977.42
2023-03-12T21:21:21.946Z,98974.70
2023-03-12T21:24:24.719Z,98972.73
2023-03-12T21:27:27.442Z,98968.79
2023-03-12T21:30:30.342Z,98967.70
2023-03-12T21:33:35.731Z,98960.56
2023-03-12T21:36:38.494Z,98962.15
2023-03-12T21:39:42.157Z,98949.23
2023-03-12T21:42:44.894Z,98956.52
2023-03-12T21:45:47.685Z,98953.89
2023-03-12T21:48:50.552Z,98947.67
2023-03-12T21:51:53.301Z,98946.54
2023-03-12T21:54:56.203Z,98943.37
2023-03-12T21:57:58.892Z,98950.17
2023-03-12T22:01:10.915Z,98949.43
2023-03-12T22:04:13.664Z,98949.20
2023-03-12T22:07:16.745Z,98959.61
2023-03-12T22:10:19.600Z,98960.93
2023-03-12T22:13:22.651Z,98956.63
2023-03-12T22:16:25.489Z,98951.39
2023-03-12T22:19:28.442Z,98950.27
2023-03-12T22:22:31.151Z,98948.47
2023-03-12T22:25:34.740Z,98944.48
2023-03-12T22:28:37.632Z,98943.39
2023-03-12T22:31:40.579Z,98941.96
2023-03-12T22:34:43.379Z,98939.70
2023-03-12T22:37:46.038Z,98931.53
2023-03-12T22:40:49.415Z,98933.12
2023-03-12T22:43:54.686Z,98929.34
2023-03-12T22:46:57.493Z,98926.52
2023-03-12T22:50:00.233Z,98929.75
2023-03-12T22:53:02.943Z,98926.63
2023-03-12T22:56:08.390Z,98924.70
2023-03-12T22:59:11.114Z,98918.10
2023-03-12T23:02:13.906Z,98918.34
2023-03-12T23:05:16.803Z,98922.36
2023-03-12T23:08:19.644Z,98921.88
2023-03-12T23:11:25.567Z,98919.73
2023-03-12T23:14:28.518Z,98919.05
2023-03-12T23:17:31.361Z,98920.94
2023-03-12T23:20:34.077Z,98924.42
2023-03-12T23:23:39.545Z,98925.11
2023-03-12T23:26:43.843Z,98922.45
2023-03-12T23:29:46.764Z,98918.23
2023-03-12T23:32:49.547Z,98928.77
2023-03-12T23:36:04.848Z,98927.11
2023-03-12T23:39:15.872Z,98919.40
2023-03-12T23:42:18.560Z,98924.95
2023-03-12T23:45:21.333Z,98926.52
2023-03-12T23:48:25.399Z,98917.70
2023-03-12T23:51:31.334Z,98919.76
2023-03-12T23:54:34.151Z,98925.90
2023-03-12T23:57:36.836Z,98928.09
